CheckWX is a tool to help pilots better visualize weather data.  It is not intended as a substitute for an official pre-flight weather briefing.

07:12:16 UTC

EPWA TAF
Warsaw Chopin Airport
Warsaw, Poland
TAF EPWA 180530Z 1806/1906 08009KT CAVOK

Jun-18@
06:00 UTC

Jun-18 @ 06:00 UTC

Jun-19@
06:00 UTC

Jun-19 @ 06:00 UTC

TAF EPWA 180530Z 1806/1906 08009KT CAVOK
Wind
  • 080° at 9 KTS
Conditions
No significant weather
Cloud Levels
  • No significant clouds